createdAt,value
2018-11-06T00:00:28.006Z,41.57
2018-11-06T00:03:01.700Z,37.97
2018-11-06T00:05:29.838Z,41.93
2018-11-06T00:07:58.305Z,38.93
2018-11-06T00:10:26.554Z,38.77
2018-11-06T00:12:54.640Z,43.27
2018-11-06T00:15:22.783Z,38.17
2018-11-06T00:17:51.141Z,43.03
2018-11-06T00:20:19.913Z,42.80
2018-11-06T00:22:48.115Z,38.83
2018-11-06T00:25:16.229Z,41.43
2018-11-06T00:27:44.459Z,36.13
2018-11-06T00:30:13.705Z,38.30
2018-11-06T00:32:42.373Z,42.77
2018-11-06T00:35:11.941Z,44.03
2018-11-06T00:37:41.269Z,42.37
2018-11-06T00:40:09.885Z,42.43
2018-11-06T00:42:38.545Z,40.93
2018-11-06T00:45:10.217Z,41.37
2018-11-06T00:47:38.971Z,42.17
2018-11-06T00:50:08.986Z,45.63
2018-11-06T00:52:37.947Z,41.80
2018-11-06T00:55:07.413Z,44.30
2018-11-06T00:57:36.131Z,43.43
2018-11-06T01:00:06.176Z,42.47
2018-11-06T01:02:34.262Z,42.30
2018-11-06T01:05:02.606Z,42.90
2018-11-06T01:07:30.751Z,43.57
2018-11-06T01:09:58.835Z,41.13
2018-11-06T01:12:26.930Z,39.30
2018-11-06T01:14:55.059Z,40.07
2018-11-06T01:17:23.206Z,36.40
2018-11-06T01:19:51.713Z,38.70
2018-11-06T01:22:19.879Z,41.80
2018-11-06T01:24:48.135Z,41.00
2018-11-06T01:27:16.789Z,38.53
2018-11-06T01:29:44.998Z,36.37
2018-11-06T01:32:13.096Z,38.17
2018-11-06T01:34:41.558Z,39.13
2018-11-06T01:37:09.798Z,39.93
2018-11-06T01:39:37.886Z,37.70
2018-11-06T01:42:06.628Z,43.47
2018-11-06T01:44:34.928Z,42.27
2018-11-06T01:47:03.118Z,38.43
2018-11-06T01:49:31.423Z,39.37
2018-11-06T01:51:59.578Z,45.37
2018-11-06T01:54:28.352Z,49.43
2018-11-06T01:56:56.500Z,46.73
2018-11-06T01:59:26.026Z,41.70
2018-11-06T02:01:55.168Z,41.97
2018-11-06T02:04:24.211Z,43.67
2018-11-06T02:06:52.349Z,40.60
2018-11-06T02:09:20.985Z,37.60
2018-11-06T02:11:49.090Z,42.87
2018-11-06T02:14:17.428Z,41.40
2018-11-06T02:16:46.416Z,39.93
2018-11-06T02:19:14.727Z,39.90
2018-11-06T02:21:43.248Z,41.23
2018-11-06T02:24:11.513Z,40.57
2018-11-06T02:26:40.512Z,42.57
2018-11-06T02:29:08.912Z,47.70
2018-11-06T02:31:37.345Z,46.40
2018-11-06T02:34:06.685Z,44.23
2018-11-06T02:36:34.949Z,45.10
2018-11-06T02:39:04.248Z,46.00
2018-11-06T02:41:32.775Z,45.53
2018-11-06T02:44:01.600Z,43.03
2018-11-06T02:46:29.961Z,46.43
2018-11-06T02:48:58.057Z,43.93
2018-11-06T02:51:27.115Z,42.90
2018-11-06T02:53:55.231Z,45.00
2018-11-06T02:56:23.531Z,42.33
2018-11-06T02:58:51.613Z,46.20
2018-11-06T03:01:20.875Z,40.57
2018-11-06T03:03:48.985Z,42.43
2018-11-06T03:06:17.256Z,44.17
2018-11-06T03:08:45.385Z,44.33
2018-11-06T03:11:13.501Z,40.60
2018-11-06T03:13:43.019Z,42.13
2018-11-06T03:16:11.284Z,43.87
2018-11-06T03:18:39.420Z,42.83
2018-11-06T03:21:07.518Z,40.63
2018-11-06T03:23:35.716Z,44.37
2018-11-06T03:26:04.422Z,42.23
2018-11-06T03:28:33.124Z,41.70
2018-11-06T03:31:01.612Z,44.83
2018-11-06T03:33:29.761Z,43.87
2018-11-06T03:35:58.188Z,44.97
2018-11-06T03:38:26.420Z,46.17
2018-11-06T03:40:54.736Z,47.60
2018-11-06T03:43:22.870Z,43.30
2018-11-06T03:45:50.986Z,47.37
2018-11-06T03:48:19.150Z,44.47
2018-11-06T03:50:48.042Z,48.50
2018-11-06T03:53:16.407Z,45.10
2018-11-06T03:55:44.695Z,46.23
2018-11-06T03:58:12.810Z,41.73
2018-11-06T04:00:41.176Z,41.30
2018-11-06T04:03:09.624Z,42.53
2018-11-06T04:05:37.718Z,45.17
2018-11-06T04:08:06.292Z,42.77
2018-11-06T04:10:34.848Z,43.73
2018-11-06T04:13:03.054Z,42.27
2018-11-06T04:15:31.456Z,42.03
2018-11-06T04:17:59.592Z,45.47
2018-11-06T04:20:27.966Z,42.27
2018-11-06T04:22:56.373Z,42.50
2018-11-06T04:25:24.732Z,51.10
2018-11-06T04:27:53.058Z,55.53
2018-11-06T04:30:21.909Z,42.93
2018-11-06T04:32:50.919Z,48.07
2018-11-06T04:35:20.045Z,44.47
2018-11-06T04:37:48.638Z,49.00
2018-11-06T04:40:16.800Z,45.27
2018-11-06T04:42:45.147Z,46.77
2018-11-06T04:45:13.685Z,42.13
2018-11-06T04:47:42.447Z,41.50
2018-11-06T04:50:10.980Z,46.03
2018-11-06T04:52:39.473Z,47.33
2018-11-06T04:55:09.577Z,41.10
2018-11-06T04:57:38.096Z,44.37
2018-11-06T05:00:08.882Z,43.87
2018-11-06T05:02:37.411Z,44.43
2018-11-06T05:05:06.778Z,43.10
2018-11-06T05:07:35.466Z,48.20
2018-11-06T05:10:04.094Z,46.53
2018-11-06T05:12:33.848Z,43.47
2018-11-06T05:15:02.099Z,43.03
2018-11-06T05:17:30.254Z,42.63
2018-11-06T05:19:58.458Z,45.43
2018-11-06T05:22:26.900Z,44.70
2018-11-06T05:24:55.016Z,46.53
2018-11-06T05:27:23.133Z,39.83
2018-11-06T05:29:51.288Z,47.63
2018-11-06T05:32:19.626Z,45.67
2018-11-06T05:34:47.792Z,45.90
2018-11-06T05:37:15.970Z,46.37
2018-11-06T05:40:01.125Z,44.97
2018-11-06T05:42:29.705Z,47.93
2018-11-06T05:44:57.826Z,39.97
2018-11-06T05:47:26.338Z,40.27
2018-11-06T05:49:54.468Z,36.70
2018-11-06T05:52:22.744Z,39.43
2018-11-06T05:54:51.229Z,38.30
2018-11-06T05:57:19.350Z,37.07
2018-11-06T05:59:47.648Z,40.80
2018-11-06T06:02:15.862Z,43.47
2018-11-06T06:04:44.375Z,39.77
2018-11-06T06:07:13.156Z,41.07
2018-11-06T06:09:41.248Z,44.97
2018-11-06T06:12:09.433Z,45.73
2018-11-06T06:14:37.520Z,40.20
2018-11-06T06:17:06.653Z,44.80
2018-11-06T06:19:34.787Z,41.87
2018-11-06T06:22:02.930Z,42.70
2018-11-06T06:24:31.034Z,41.23
2018-11-06T06:26:59.374Z,43.17
2018-11-06T06:29:27.823Z,39.60
2018-11-06T06:31:56.611Z,39.87
2018-11-06T06:34:24.720Z,43.37
2018-11-06T06:36:52.859Z,41.37
2018-11-06T06:39:21.901Z,39.87
2018-11-06T06:41:50.324Z,41.77
2018-11-06T06:44:18.469Z,42.30
2018-11-06T06:46:47.313Z,40.40
2018-11-06T06:49:15.408Z,38.70
2018-11-06T06:51:44.254Z,40.23
2018-11-06T06:54:12.691Z,34.77
2018-11-06T06:56:40.677Z,37.53
2018-11-06T06:59:08.827Z,36.23
2018-11-06T07:01:37.020Z,33.73
2018-11-06T07:04:05.411Z,35.37
2018-11-06T07:06:33.529Z,36.57
2018-11-06T07:09:01.834Z,37.77
2018-11-06T07:11:29.962Z,38.40
2018-11-06T07:13:58.123Z,35.17
2018-11-06T07:16:27.843Z,34.93
2018-11-06T07:18:55.989Z,35.17
2018-11-06T07:21:24.216Z,34.57
2018-11-06T07:23:52.352Z,35.83
2018-11-06T07:26:20.597Z,36.57
2018-11-06T07:28:48.873Z,33.37
2018-11-06T07:31:16.969Z,33.33
2018-11-06T07:33:45.092Z,32.37
2018-11-06T07:36:13.397Z,36.37
2018-11-06T07:38:41.557Z,34.57
2018-11-06T07:41:10.621Z,37.50
2018-11-06T07:43:38.796Z,32.33
2018-11-06T07:46:07.578Z,34.40
2018-11-06T07:48:35.719Z,31.93
2018-11-06T07:51:03.903Z,30.83
2018-11-06T07:53:32.074Z,32.53
2018-11-06T07:56:00.352Z,32.73
2018-11-06T07:58:29.370Z,30.37
2018-11-06T08:00:58.240Z,29.43
2018-11-06T08:03:26.374Z,31.67
2018-11-06T08:05:54.540Z,32.27
2018-11-06T08:08:23.435Z,33.07
2018-11-06T08:10:51.504Z,29.17
2018-11-06T08:13:19.650Z,30.47
2018-11-06T08:15:48.448Z,33.37
2018-11-06T08:18:16.631Z,33.53
2018-11-06T08:20:46.053Z,31.77
2018-11-06T08:23:14.074Z,31.37
2018-11-06T08:25:43.039Z,29.00
2018-11-06T08:28:11.186Z,28.03
2018-11-06T08:30:39.450Z,30.37
2018-11-06T08:33:07.181Z,27.07
2018-11-06T08:35:35.310Z,30.53
2018-11-06T08:38:03.457Z,27.37
2018-11-06T08:40:31.959Z,26.83
2018-11-06T08:43:00.093Z,27.60
2018-11-06T08:45:28.191Z,23.50
2018-11-06T08:47:56.352Z,28.30
2018-11-06T08:50:24.689Z,20.07
2018-11-06T08:52:52.842Z,23.00
2018-11-06T08:55:21.070Z,20.37
2018-11-06T08:57:49.184Z,27.77
2018-11-06T09:00:18.527Z,23.20
2018-11-06T09:02:47.534Z,19.32
2018-11-06T09:05:16.629Z,18.92
2018-11-06T09:07:45.486Z,21.93
2018-11-06T09:10:14.594Z,22.02
2018-11-06T09:12:42.963Z,17.70
2018-11-06T09:15:13.393Z,18.92
2018-11-06T09:17:41.585Z,20.35
2018-11-06T09:20:11.431Z,18.65
2018-11-06T09:22:39.711Z,23.00
2018-11-06T09:25:10.131Z,19.20
2018-11-06T09:27:38.751Z,17.95
2018-11-06T09:30:12.390Z,18.80
2018-11-06T09:32:40.640Z,18.02
2018-11-06T09:35:10.720Z,20.23
2018-11-06T09:37:41.000Z,18.48
2018-11-06T09:40:12.593Z,16.12
2018-11-06T09:42:40.810Z,17.10
2018-11-06T09:45:10.347Z,19.17
2018-11-06T09:47:39.208Z,16.80
2018-11-06T09:50:12.951Z,14.68
2018-11-06T09:52:42.905Z,16.15
2018-11-06T09:55:11.223Z,16.37
2018-11-06T09:57:39.495Z,18.05
2018-11-06T10:00:12.306Z,15.32
2018-11-06T10:02:40.706Z,14.78
2018-11-06T10:05:09.645Z,17.17
2018-11-06T10:07:38.120Z,15.45
2018-11-06T10:10:09.298Z,15.20
2018-11-06T10:12:37.599Z,15.32
2018-11-06T10:15:08.599Z,16.05
2018-11-06T10:17:38.018Z,16.12
2018-11-06T10:20:07.932Z,15.72
2018-11-06T10:22:37.573Z,13.68
2018-11-06T10:25:06.439Z,16.15
2018-11-06T10:27:35.694Z,14.75
2018-11-06T10:30:04.667Z,13.20
2018-11-06T10:32:33.572Z,14.35
2018-11-06T10:35:01.694Z,14.50
2018-11-06T10:37:30.243Z,16.12
2018-11-06T10:39:59.196Z,14.15
2018-11-06T10:42:28.282Z,13.88
2018-11-06T10:44:56.414Z,14.93
2018-11-06T10:47:24.592Z,16.17
2018-11-06T10:49:52.706Z,15.98
2018-11-06T10:52:20.977Z,14.23
2018-11-06T10:54:50.055Z,13.32
2018-11-06T10:57:18.831Z,13.88
2018-11-06T10:59:46.973Z,12.33
2018-11-06T11:02:20.799Z,15.10
2018-11-06T11:04:49.631Z,14.40
2018-11-06T11:07:18.318Z,14.63
2018-11-06T11:09:46.481Z,18.57
2018-11-06T11:12:14.776Z,14.90
2018-11-06T11:14:42.935Z,11.33
2018-11-06T11:17:11.551Z,11.80
2018-11-06T11:19:39.692Z,11.15
2018-11-06T11:22:08.087Z,11.55
2018-11-06T11:24:36.399Z,11.40
2018-11-06T11:27:06.073Z,11.68
2018-11-06T11:29:34.401Z,11.63
2018-11-06T11:32:02.693Z,10.93
2018-11-06T11:34:30.975Z,20.08
2018-11-06T11:36:59.446Z,12.43
2018-11-06T11:39:27.913Z,11.93
2018-11-06T11:41:56.019Z,12.10
2018-11-06T11:44:24.593Z,10.65
2018-11-06T11:46:52.925Z,11.18
2018-11-06T11:49:21.170Z,11.33
2018-11-06T11:51:49.297Z,12.30
2018-11-06T11:54:17.625Z,10.43
2018-11-06T11:56:45.761Z,13.70
2018-11-06T11:59:14.610Z,11.75
2018-11-06T12:01:42.717Z,11.15
2018-11-06T12:04:11.022Z,11.00
2018-11-06T12:06:40.702Z,14.17
2018-11-06T12:09:09.641Z,11.53
2018-11-06T12:11:38.040Z,19.63
2018-11-06T12:14:06.680Z,12.27
2018-11-06T12:16:35.701Z,12.33
2018-11-06T12:19:04.042Z,12.00
2018-11-06T12:21:32.200Z,12.47
2018-11-06T12:24:01.074Z,13.83
2018-11-06T12:26:29.217Z,12.07
2018-11-06T12:28:57.532Z,10.17
2018-11-06T12:31:25.676Z,11.33
2018-11-06T12:33:53.972Z,10.47
2018-11-06T12:36:22.196Z,9.87
2018-11-06T12:38:50.967Z,13.27
2018-11-06T12:41:19.068Z,12.40
2018-11-06T12:43:47.412Z,12.60
2018-11-06T12:46:16.082Z,11.23
2018-11-06T12:48:45.117Z,10.13
2018-11-06T12:51:13.250Z,10.43
2018-11-06T12:53:41.538Z,11.73
2018-11-06T12:56:09.681Z,9.27
2018-11-06T12:58:37.968Z,13.57
2018-11-06T13:01:06.554Z,13.90
2018-11-06T13:03:34.960Z,13.60
2018-11-06T13:06:03.164Z,15.57
2018-11-06T13:08:31.288Z,13.67
2018-11-06T13:10:59.499Z,33.20
2018-11-06T13:13:27.880Z,16.37
2018-11-06T13:15:57.220Z,12.90
2018-11-06T13:18:25.558Z,16.77
2018-11-06T13:20:53.779Z,14.10
2018-11-06T13:23:22.050Z,14.73
2018-11-06T13:25:50.525Z,14.57
2018-11-06T13:28:19.346Z,16.67
2018-11-06T13:30:47.729Z,16.23
2018-11-06T13:33:16.773Z,18.27
2018-11-06T13:35:45.069Z,19.03
2018-11-06T13:38:13.308Z,12.27
2018-11-06T13:40:41.699Z,14.53
2018-11-06T13:43:09.890Z,12.77
2018-11-06T13:45:39.228Z,11.90
2018-11-06T13:48:07.921Z,12.50
2018-11-06T13:50:36.889Z,11.63
2018-11-06T13:53:05.548Z,12.23
2018-11-06T13:55:34.003Z,12.43
2018-11-06T13:58:02.141Z,16.30
2018-11-06T14:00:31.057Z,18.03
2018-11-06T14:02:59.820Z,14.67
2018-11-06T14:05:28.180Z,12.73
2018-11-06T14:07:56.405Z,15.70
2018-11-06T14:10:24.557Z,15.40
2018-11-06T14:12:52.695Z,12.53
2018-11-06T14:15:22.476Z,15.73
2018-11-06T14:17:50.630Z,13.77
2018-11-06T14:20:18.970Z,17.07
2018-11-06T14:22:47.102Z,14.87
2018-11-06T14:25:16.463Z,16.27
2018-11-06T14:27:44.558Z,11.57
2018-11-06T14:30:15.660Z,12.90
2018-11-06T14:32:44.072Z,14.23
2018-11-06T14:35:14.007Z,14.30
2018-11-06T14:37:42.711Z,12.30
2018-11-06T14:40:12.183Z,11.87
2018-11-06T14:42:40.804Z,13.93
2018-11-06T14:45:11.609Z,13.27
2018-11-06T14:47:40.128Z,16.07
2018-11-06T14:50:09.325Z,13.07
2018-11-06T14:52:37.760Z,13.30
2018-11-06T14:55:08.748Z,13.10
2018-11-06T14:57:37.055Z,14.30
2018-11-06T15:00:11.710Z,16.03
2018-11-06T15:02:42.702Z,16.13
2018-11-06T15:05:10.882Z,14.03
2018-11-06T15:07:39.113Z,19.30
2018-11-06T15:10:08.565Z,16.40
2018-11-06T15:12:37.387Z,16.03
2018-11-06T15:15:08.771Z,17.77
2018-11-06T15:17:38.220Z,19.33
2018-11-06T15:20:09.571Z,16.83
2018-11-06T15:22:38.119Z,17.60
2018-11-06T15:25:07.390Z,19.73
2018-11-06T15:27:35.606Z,23.00
2018-11-06T15:30:04.565Z,21.43
2018-11-06T15:32:32.721Z,19.63
2018-11-06T15:35:01.057Z,21.60
2018-11-06T15:37:29.369Z,19.53
2018-11-06T15:39:58.072Z,22.20
2018-11-06T15:42:26.455Z,24.73
2018-11-06T15:44:54.999Z,22.87
2018-11-06T15:47:23.337Z,22.97
2018-11-06T15:49:51.567Z,22.53
2018-11-06T15:52:19.919Z,21.57
2018-11-06T15:54:48.998Z,22.57
2018-11-06T15:57:18.038Z,22.73
2018-11-06T15:59:46.272Z,20.10
2018-11-06T16:02:14.592Z,21.30
2018-11-06T16:04:46.296Z,25.03
2018-11-06T16:07:17.236Z,25.00
2018-11-06T16:09:46.700Z,23.53
2018-11-06T16:12:15.201Z,22.50
2018-11-06T16:14:43.809Z,21.87
2018-11-06T16:17:11.973Z,22.90
2018-11-06T16:19:40.360Z,25.80
2018-11-06T16:22:08.574Z,22.77
2018-11-06T16:24:38.626Z,22.80
2018-11-06T16:27:06.990Z,24.63
2018-11-06T16:29:35.180Z,23.23
2018-11-06T16:32:03.314Z,22.27
2018-11-06T16:34:31.450Z,22.97
2018-11-06T16:36:59.727Z,21.03
2018-11-06T16:39:29.595Z,28.00
2018-11-06T16:41:57.914Z,26.47
2018-11-06T16:44:26.358Z,27.70
2018-11-06T16:46:54.950Z,27.10
2018-11-06T16:49:23.164Z,28.67
2018-11-06T16:51:51.347Z,25.63
2018-11-06T16:54:19.846Z,23.87
2018-11-06T16:56:48.067Z,25.97
2018-11-06T16:59:16.178Z,28.73
2018-11-06T17:01:44.404Z,26.93
2018-11-06T17:04:13.176Z,26.57
2018-11-06T17:06:46.852Z,25.63
2018-11-06T17:09:16.568Z,28.00
2018-11-06T17:11:45.410Z,28.53
2018-11-06T17:14:13.837Z,30.73
2018-11-06T17:16:42.728Z,29.67
2018-11-06T17:19:12.294Z,28.33
2018-11-06T17:21:40.514Z,28.07
2018-11-06T17:24:08.656Z,31.60
2018-11-06T17:26:36.773Z,32.00
2018-11-06T17:29:05.726Z,32.30
2018-11-06T17:31:34.145Z,33.00
2018-11-06T17:34:02.659Z,32.73
2018-11-06T17:36:31.095Z,31.57
2018-11-06T17:38:59.506Z,29.80
2018-11-06T17:41:27.584Z,30.23
2018-11-06T17:43:56.452Z,34.03
2018-11-06T17:46:24.615Z,31.90
2018-11-06T17:48:53.472Z,32.90
2018-11-06T17:51:21.833Z,32.80
2018-11-06T17:53:50.037Z,34.97
2018-11-06T17:56:18.276Z,35.10
2018-11-06T17:58:46.452Z,32.50
2018-11-06T18:01:14.683Z,34.13
2018-11-06T18:03:43.193Z,31.70
2018-11-06T18:06:11.286Z,32.17
2018-11-06T18:08:39.815Z,33.90
2018-11-06T18:11:08.638Z,33.60
2018-11-06T18:13:37.764Z,30.73
2018-11-06T18:16:06.306Z,32.80
2018-11-06T18:18:35.156Z,32.13
2018-11-06T18:21:03.377Z,33.33
2018-11-06T18:23:31.645Z,38.07
2018-11-06T18:25:59.850Z,35.00
2018-11-06T18:28:28.062Z,33.43
2018-11-06T18:30:56.307Z,37.27
2018-11-06T18:33:25.511Z,34.17
2018-11-06T18:35:53.840Z,36.53
2018-11-06T18:38:22.841Z,37.90
2018-11-06T18:40:50.975Z,35.27
2018-11-06T18:43:19.116Z,35.73
2018-11-06T18:45:47.390Z,34.10
2018-11-06T18:48:15.783Z,37.93
2018-11-06T18:51:11.619Z,37.13
2018-11-06T18:53:40.566Z,36.30
2018-11-06T18:56:08.643Z,39.20
2018-11-06T18:58:37.834Z,40.97
2018-11-06T19:01:06.024Z,37.50
2018-11-06T19:03:35.248Z,36.97
2018-11-06T19:06:03.473Z,38.90
2018-11-06T19:08:32.516Z,39.43
2018-11-06T19:11:01.363Z,41.07
2018-11-06T19:13:29.700Z,40.47
2018-11-06T19:15:58.343Z,38.47
2018-11-06T19:18:26.522Z,42.73
2018-11-06T19:20:54.621Z,39.53
2018-11-06T19:23:23.725Z,42.10
2018-11-06T19:25:51.814Z,41.87
2018-11-06T19:28:19.904Z,41.03
2018-11-06T19:30:48.055Z,41.30
2018-11-06T19:33:16.188Z,42.60
2018-11-06T19:35:44.390Z,42.13
2018-11-06T19:38:12.519Z,42.47
2018-11-06T19:40:40.774Z,40.30
2018-11-06T19:43:08.846Z,43.27
2018-11-06T19:45:36.984Z,45.63
2018-11-06T19:48:05.498Z,41.27
2018-11-06T19:50:33.634Z,41.30
2018-11-06T19:53:01.846Z,42.13
2018-11-06T19:55:30.053Z,44.10
2018-11-06T19:57:58.187Z,45.73
2018-11-06T20:00:26.349Z,48.30
2018-11-06T20:02:54.578Z,44.33
2018-11-06T20:05:22.793Z,44.87
2018-11-06T20:07:51.527Z,42.53
2018-11-06T20:10:22.257Z,45.17
2018-11-06T20:12:51.425Z,43.63
2018-11-06T20:15:19.718Z,46.97
2018-11-06T20:17:48.821Z,45.67
2018-11-06T20:20:20.439Z,39.17
2018-11-06T20:22:48.635Z,46.20
2018-11-06T20:25:16.782Z,44.73
2018-11-06T20:27:45.327Z,48.67
2018-11-06T20:30:16.341Z,43.50
2018-11-06T20:32:44.555Z,42.67
2018-11-06T20:35:13.193Z,46.67
2018-11-06T20:37:41.418Z,47.60
2018-11-06T20:40:13.191Z,44.70
2018-11-06T20:42:42.036Z,47.40
2018-11-06T20:45:12.102Z,47.07
2018-11-06T20:47:40.463Z,47.03
2018-11-06T20:50:11.699Z,48.40
2018-11-06T20:52:39.997Z,47.77
2018-11-06T20:55:08.848Z,47.27
2018-11-06T20:57:36.950Z,52.87
2018-11-06T21:00:08.241Z,46.93
2018-11-06T21:02:36.336Z,47.60
2018-11-06T21:05:04.947Z,50.70
2018-11-06T21:07:33.320Z,44.40
2018-11-06T21:10:01.466Z,44.97
2018-11-06T21:12:29.736Z,47.40
2018-11-06T21:14:57.884Z,44.80
2018-11-06T21:17:26.981Z,47.57
2018-11-06T21:19:55.211Z,53.23
2018-11-06T21:22:23.287Z,46.93
2018-11-06T21:24:51.543Z,54.00
2018-11-06T21:27:19.757Z,51.67
2018-11-06T21:29:47.945Z,49.90
2018-11-06T21:32:16.188Z,47.50
2018-11-06T21:34:44.371Z,51.63
2018-11-06T21:37:12.618Z,48.17
2018-11-06T21:39:40.759Z,48.60
2018-11-06T21:42:09.175Z,49.10
2018-11-06T21:44:37.645Z,49.07
2018-11-06T21:47:05.783Z,50.17
2018-11-06T21:49:33.959Z,46.13
2018-11-06T21:52:02.234Z,51.63
2018-11-06T21:54:30.455Z,46.50
2018-11-06T21:56:59.649Z,52.20
2018-11-06T21:59:28.090Z,52.33
2018-11-06T22:01:57.007Z,52.57
2018-11-06T22:04:25.417Z,49.27
2018-11-06T22:06:53.581Z,46.83
2018-11-06T22:09:21.943Z,48.90
2018-11-06T22:11:50.061Z,48.37
2018-11-06T22:14:18.344Z,46.77
2018-11-06T22:16:46.739Z,51.63
2018-11-06T22:19:15.260Z,52.47
2018-11-06T22:21:43.751Z,48.80
2018-11-06T22:24:11.972Z,49.77
2018-11-06T22:26:40.160Z,50.57
2018-11-06T22:29:08.612Z,52.70
2018-11-06T22:31:37.278Z,52.50
2018-11-06T22:34:05.748Z,60.47
2018-11-06T22:36:34.046Z,52.17
2018-11-06T22:39:02.370Z,50.20
2018-11-06T22:41:30.803Z,48.97
2018-11-06T22:43:59.076Z,50.23
2018-11-06T22:46:27.386Z,44.07
2018-11-06T22:48:55.571Z,49.67
2018-11-06T22:51:24.058Z,51.37
2018-11-06T22:53:52.480Z,55.67
2018-11-06T22:56:20.871Z,49.40
2018-11-06T22:58:49.006Z,53.27
2018-11-06T23:01:22.822Z,55.80
2018-11-06T23:03:52.765Z,51.53
2018-11-06T23:06:21.542Z,50.37
2018-11-06T23:08:49.692Z,59.73
2018-11-06T23:11:18.522Z,58.40
2018-11-06T23:13:46.908Z,56.03
2018-11-06T23:16:15.173Z,52.47
2018-11-06T23:18:43.306Z,51.80
2018-11-06T23:21:11.448Z,51.00
2018-11-06T23:23:39.598Z,52.93
2018-11-06T23:26:08.080Z,45.73
2018-11-06T23:28:36.326Z,50.90
2018-11-06T23:31:04.821Z,51.10
2018-11-06T23:33:32.990Z,49.03
2018-11-06T23:36:01.398Z,50.17
2018-11-06T23:38:29.763Z,57.80
2018-11-06T23:40:58.449Z,51.07
2018-11-06T23:43:26.752Z,57.80
2018-11-06T23:45:55.063Z,52.03
2018-11-06T23:48:23.487Z,52.13
2018-11-06T23:50:51.923Z,48.33
2018-11-06T23:53:20.419Z,54.37
2018-11-06T23:55:48.553Z,55.03
2018-11-06T23:58:16.851Z,57.67
